Time;durP1;ratioP1;P1;durP2;ratioP2;P2;SDS_P1;SDS_P2;PMS_P1;PMS_P2;Temp;Humidity;BMP_temperature;BMP_pressure;BME280_temperature;BME280_humidity;BME280_pressure;Samples;Min_cycle;Max_cycle;Signal;HPM_P1;HPM_P2
2021/08/13 00:00:22;;;;;;;16.40;13.70;;;;;;;19.41;69.23;102028.34;4931557;28;20222;-74
2021/08/13 00:02:49;;;;;;;16.60;13.70;;;;;;;19.40;69.03;102019.41;4930176;29;20220;-74
2021/08/13 00:05:15;;;;;;;15.17;13.63;;;;;;;19.41;69.16;102028.34;4932804;29;20237;-75
2021/08/13 00:07:42;;;;;;;15.20;13.60;;;;;;;19.46;68.46;102027.59;4928624;29;20215;-74
2021/08/13 00:10:10;;;;;;;18.63;15.10;;;;;;;19.57;69.91;102040.25;4930027;29;20229;-74
2021/08/13 00:12:37;;;;;;;18.60;14.40;;;;;;;19.55;69.19;102039.66;4931954;29;20228;-74
2021/08/13 00:15:04;;;;;;;18.13;15.53;;;;;;;19.44;68.79;102032.44;4931010;29;20242;-74
2021/08/13 00:17:31;;;;;;;18.63;15.63;;;;;;;19.23;70.34;102032.19;4931180;29;20710;-74
2021/08/13 00:19:57;;;;;;;16.80;14.93;;;;;;;19.31;70.09;102034.47;4932111;29;20285;-74
2021/08/13 00:22:23;;;;;;;17.57;15.30;;;;;;;19.31;69.38;102036.34;4930164;29;20225;-74
2021/08/13 00:24:51;;;;;;;17.07;15.23;;;;;;;19.34;69.50;102035.88;4930054;29;20277;-74
2021/08/13 00:27:19;;;;;;;21.73;15.67;;;;;;;19.32;69.23;102041.53;4929567;29;20307;-74
2021/08/13 00:29:45;;;;;;;21.43;17.40;;;;;;;19.25;70.47;102040.06;4928443;29;20210;-74
2021/08/13 00:32:12;;;;;;;21.50;17.73;;;;;;;19.24;70.44;102033.84;4929736;29;20220;-74
2021/08/13 00:34:38;;;;;;;23.17;17.80;;;;;;;19.32;69.68;102040.72;4929978;29;20251;-74
2021/08/13 00:37:05;;;;;;;23.27;19.43;;;;;;;19.27;70.37;102043.34;4930380;29;20217;-74
2021/08/13 00:39:32;;;;;;;23.90;18.83;;;;;;;19.36;70.83;102050.78;4932361;28;20226;-74
2021/08/13 00:41:58;;;;;;;28.10;21.27;;;;;;;19.29;71.38;102046.63;4931111;29;20842;-74
2021/08/13 00:44:28;;;;;;;25.67;20.30;;;;;;;19.23;72.08;102040.34;4930954;29;20307;-75
2021/08/13 00:46:54;;;;;;;28.23;20.93;;;;;;;19.17;72.21;102029.66;4930635;29;20243;-74
2021/08/13 00:49:20;;;;;;;29.50;23.53;;;;;;;19.09;72.72;102037.16;4931093;29;20268;-74
2021/08/13 00:51:47;;;;;;;26.97;20.60;;;;;;;19.12;72.88;102038.56;4930613;28;20221;-74
2021/08/13 00:54:13;;;;;;;30.80;22.67;;;;;;;19.06;72.90;102034.97;4932599;28;20715;-74
2021/08/13 00:56:40;;;;;;;27.40;21.67;;;;;;;19.02;73.21;102033.00;4927253;29;20240;-74
2021/08/13 00:59:09;;;;;;;29.40;22.50;;;;;;;18.95;73.80;102035.06;4926916;29;20260;-74
2021/08/13 01:01:37;;;;;;;25.03;20.73;;;;;;;18.92;73.96;102043.69;4929512;28;20221;-74
2021/08/13 01:04:04;;;;;;;25.43;21.57;;;;;;;19.13;73.35;102048.31;4929439;28;20242;-74
2021/08/13 01:06:31;;;;;;;24.40;19.83;;;;;;;19.05;73.41;102049.56;4930041;29;20225;-74
2021/08/13 01:08:57;;;;;;;25.93;22.07;;;;;;;19.01;73.80;102040.31;4931505;29;20244;-74
2021/08/13 01:11:29;;;;;;;25.33;21.47;;;;;;;19.19;73.91;102051.94;4931803;29;20281;-74
2021/08/13 01:13:58;;;;;;;26.00;22.63;;;;;;;19.01;74.00;102069.28;4930539;29;20208;-74
2021/08/13 01:16:26;;;;;;;27.17;22.40;;;;;;;19.11;73.68;102064.00;4932638;29;20691;-74
2021/08/13 01:18:57;;;;;;;22.80;19.87;;;;;;;19.16;73.77;102064.06;4927791;29;20293;-74
2021/08/13 01:21:34;;;;;;;26.37;20.53;;;;;;;19.34;72.64;102058.38;4927232;29;20214;-74
2021/08/13 01:24:04;;;;;;;23.40;20.60;;;;;;;19.36;72.77;102061.63;4926655;29;20218;-74
2021/08/13 01:26:33;;;;;;;25.63;21.13;;;;;;;19.25;73.24;102051.72;4928125;29;20645;-74
2021/08/13 01:29:05;;;;;;;24.43;21.80;;;;;;;19.20;73.19;102056.28;4929743;29;20947;-74
2021/08/13 01:31:39;;;;;;;25.67;20.37;;;;;;;18.96;74.33;102058.38;4930881;29;20225;-74
2021/08/13 01:34:07;;;;;;;23.47;20.57;;;;;;;19.03;74.08;102061.72;4928095;29;20607;-74
2021/08/13 01:36:35;;;;;;;25.30;21.60;;;;;;;19.00;73.73;102064.94;4928546;29;20310;-74
2021/08/13 01:39:03;;;;;;;26.37;21.00;;;;;;;19.00;74.21;102060.34;4927479;29;20211;-74
2021/08/13 01:41:30;;;;;;;23.57;20.27;;;;;;;19.13;73.22;102058.34;4928469;29;20254;-74
2021/08/13 01:43:58;;;;;;;23.40;20.90;;;;;;;19.02;73.96;102060.06;4929620;29;20240;-74
2021/08/13 01:46:24;;;;;;;22.50;19.73;;;;;;;19.13;73.54;102069.16;4932416;29;20682;-74
2021/08/13 01:48:51;;;;;;;23.30;19.17;;;;;;;19.04;73.99;102080.44;4929714;29;20679;-74
2021/08/13 01:51:18;;;;;;;22.67;20.33;;;;;;;19.03;73.77;102076.06;4929096;29;20220;-74
2021/08/13 01:53:47;;;;;;;27.17;20.53;;;;;;;19.14;72.99;102079.75;4929243;29;20244;-74
2021/08/13 01:56:13;;;;;;;23.33;19.67;;;;;;;19.30;72.18;102064.50;4928951;29;20249;-74
2021/08/13 01:58:40;;;;;;;21.83;19.43;;;;;;;19.27;72.35;102057.72;4930673;28;20308;-74
2021/08/13 02:01:07;;;;;;;24.23;21.00;;;;;;;19.26;72.60;102066.91;4930623;29;20224;-74
2021/08/13 02:03:34;;;;;;;24.33;21.40;;;;;;;19.29;72.56;102063.69;4929634;29;20241;-74
2021/08/13 02:06:00;;;;;;;26.37;22.87;;;;;;;19.08;73.81;102067.22;4929286;29;20213;-74
2021/08/13 02:08:28;;;;;;;25.90;20.20;;;;;;;18.88;74.59;102064.22;4929340;29;20636;-74
2021/08/13 02:10:56;;;;;;;23.90;21.30;;;;;;;18.93;74.38;102064.28;4929291;28;20222;-74
2021/08/13 02:13:22;;;;;;;26.90;22.30;;;;;;;18.95;73.94;102068.41;4928721;29;20296;-74
2021/08/13 02:15:55;;;;;;;29.10;22.63;;;;;;;18.92;73.76;102068.88;4929746;28;20245;-74
2021/08/13 02:18:23;;;;;;;25.83;22.33;;;;;;;18.91;73.93;102066.41;4927675;29;20217;-73
2021/08/13 02:20:51;;;;;;;26.13;22.60;;;;;;;18.66;74.99;102078.50;4928935;29;20270;-73
2021/08/13 02:23:19;;;;;;;27.60;22.53;;;;;;;18.50;75.52;102071.16;4930321;29;20222;-73
2021/08/13 02:25:47;;;;;;;27.90;23.50;;;;;;;18.56;75.16;102069.38;4930323;29;20575;-73
2021/08/13 02:28:13;;;;;;;25.67;22.67;;;;;;;18.39;75.92;102064.75;4928256;29;20267;-73
2021/08/13 02:30:39;;;;;;;26.93;24.03;;;;;;;18.61;75.13;102069.47;4928807;28;20221;-73
2021/08/13 02:33:06;;;;;;;30.03;24.77;;;;;;;18.63;74.70;102070.84;4931256;29;20632;-73
2021/08/13 02:35:33;;;;;;;30.33;25.47;;;;;;;18.64;74.98;102077.94;4930067;29;20809;-73
2021/08/13 02:38:08;;;;;;;29.10;24.70;;;;;;;18.81;73.85;102081.47;4928725;29;20574;-74
2021/08/13 02:40:37;;;;;;;36.27;28.27;;;;;;;18.77;74.09;102071.34;4928885;29;20217;-74
2021/08/13 02:43:07;;;;;;;29.93;26.70;;;;;;;18.73;74.20;102075.63;4928844;29;20516;-74
2021/08/13 02:45:38;;;;;;;30.07;25.80;;;;;;;18.83;74.29;102066.84;4926868;29;20218;-74
2021/08/13 02:48:06;;;;;;;33.37;27.07;;;;;;;18.72;74.24;102061.28;4926211;29;20778;-74
2021/08/13 02:50:33;;;;;;;32.13;25.20;;;;;;;18.67;74.90;102061.19;4929271;29;20241;-74
2021/08/13 02:53:03;;;;;;;31.30;26.10;;;;;;;18.66;74.62;102059.53;4925940;29;20301;-74
2021/08/13 02:55:34;;;;;;;31.50;26.33;;;;;;;18.65;74.73;102057.09;4930726;29;20300;-74
2021/08/13 02:58:01;;;;;;;28.60;25.43;;;;;;;18.66;74.70;102053.31;4933003;29;20396;-74
2021/08/13 03:00:29;;;;;;;30.67;26.70;;;;;;;18.87;73.51;102055.28;4931972;29;20288;-74
2021/08/13 03:02:56;;;;;;;34.17;27.57;;;;;;;18.82;74.00;102052.50;4932494;28;20217;-74
2021/08/13 03:05:24;;;;;;;32.60;25.70;;;;;;;18.79;73.83;102048.38;4933614;29;20234;-74
2021/08/13 03:07:51;;;;;;;36.77;26.83;;;;;;;18.87;73.43;102049.84;4933451;29;20216;-74
2021/08/13 03:10:17;;;;;;;31.73;28.27;;;;;;;18.94;72.83;102046.97;4933526;29;20221;-74
2021/08/13 03:12:44;;;;;;;31.63;26.60;;;;;;;18.81;73.52;102048.16;4932591;29;20217;-74
2021/08/13 03:15:11;;;;;;;33.20;27.27;;;;;;;18.93;72.88;102037.19;4935572;29;20218;-74
2021/08/13 03:17:39;;;;;;;31.07;27.60;;;;;;;18.77;73.37;102038.88;4934304;29;20221;-74
2021/08/13 03:20:08;;;;;;;31.87;26.90;;;;;;;18.70;73.79;102035.53;4931411;29;20241;-74
2021/08/13 03:22:35;;;;;;;37.63;28.20;;;;;;;18.63;74.18;102035.66;4932440;29;20249;-74
2021/08/13 03:25:01;;;;;;;31.70;26.07;;;;;;;18.74;73.56;102036.66;4931330;29;20301;-74
2021/08/13 03:27:28;;;;;;;32.50;26.57;;;;;;;18.57;73.97;102033.13;4930891;29;20224;-74
2021/08/13 03:29:54;;;;;;;34.53;27.77;;;;;;;18.58;73.98;102042.88;4930199;29;20281;-74
2021/08/13 03:32:21;;;;;;;33.37;27.57;;;;;;;18.54;73.77;102046.06;4930489;29;20221;-74
2021/08/13 03:34:48;;;;;;;34.53;28.57;;;;;;;18.63;73.04;102042.94;4933472;28;20312;-74
2021/08/13 03:37:15;;;;;;;32.83;27.67;;;;;;;18.57;73.21;102038.53;4931660;29;20252;-74
2021/08/13 03:39:41;;;;;;;31.77;27.13;;;;;;;18.68;72.97;102043.91;4933832;29;20212;-74
2021/08/13 03:42:08;;;;;;;32.13;27.43;;;;;;;18.68;72.80;102040.38;4930752;29;20225;-74
2021/08/13 03:44:34;;;;;;;30.67;25.70;;;;;;;18.58;72.80;102034.75;4931284;29;20274;-74
2021/08/13 03:47:00;;;;;;;31.40;26.00;;;;;;;18.63;72.52;102043.78;4929257;29;20214;-74
2021/08/13 03:49:27;;;;;;;34.73;26.83;;;;;;;18.61;72.88;102047.78;4930885;29;20317;-74
2021/08/13 03:51:57;;;;;;;35.47;27.43;;;;;;;18.49;73.21;102047.88;4930320;28;20244;-74
2021/08/13 03:54:23;;;;;;;32.73;27.23;;;;;;;18.41;73.54;102048.28;4931609;29;20629;-74
2021/08/13 03:56:50;;;;;;;34.10;27.30;;;;;;;18.45;73.70;102049.44;4930793;29;20244;-74
2021/08/13 03:59:16;;;;;;;33.60;27.30;;;;;;;18.49;73.43;102054.13;4931127;29;20225;-74
2021/08/13 04:01:42;;;;;;;35.17;26.50;;;;;;;18.38;73.90;102056.91;4930149;29;20225;-74
2021/08/13 04:04:09;;;;;;;32.27;27.90;;;;;;;18.47;73.94;102055.44;4929052;29;20231;-74
2021/08/13 04:06:35;;;;;;;36.87;28.97;;;;;;;18.47;74.33;102060.84;4929498;29;20218;-74
2021/08/13 04:09:03;;;;;;;35.30;28.10;;;;;;;18.48;74.41;102055.19;4928963;29;20219;-74
2021/08/13 04:11:29;;;;;;;33.93;28.20;;;;;;;18.27;75.51;102050.47;4929851;29;21066;-74
2021/08/13 04:13:56;;;;;;;34.27;28.73;;;;;;;18.03;76.58;102047.09;4930278;29;20221;-73
2021/08/13 04:16:22;;;;;;;36.07;28.10;;;;;;;17.92;77.25;102040.69;4930069;29;20241;-73
2021/08/13 04:18:48;;;;;;;39.80;31.53;;;;;;;17.91;77.65;102041.75;4930806;29;20294;-73
2021/08/13 04:21:15;;;;;;;37.13;30.07;;;;;;;17.94;77.39;102037.75;4927989;29;20225;-74
2021/08/13 04:23:41;;;;;;;37.50;29.10;;;;;;;17.94;77.35;102035.88;4928953;29;20220;-73
2021/08/13 04:26:09;;;;;;;37.80;30.77;;;;;;;17.84;77.76;102041.06;4929383;29;20217;-74
2021/08/13 04:28:35;;;;;;;36.93;28.57;;;;;;;17.91;77.18;102041.75;4929145;29;20209;-74
2021/08/13 04:31:02;;;;;;;38.37;31.47;;;;;;;18.19;76.15;102035.50;4929942;29;20273;-77
2021/08/13 04:33:28;;;;;;;44.03;32.20;;;;;;;18.30;75.36;102028.38;4929346;29;20278;-77
2021/08/13 04:35:55;;;;;;;37.20;29.83;;;;;;;18.04;76.28;102039.78;4928929;29;20236;-77
2021/08/13 04:38:21;;;;;;;37.90;31.50;;;;;;;17.99;76.70;102039.72;4931224;29;20219;-77
2021/08/13 04:40:48;;;;;;;39.00;30.43;;;;;;;18.27;75.97;102030.72;4928069;29;20223;-77
2021/08/13 04:43:15;;;;;;;36.67;30.50;;;;;;;18.28;75.74;102035.88;4929918;29;20226;-77
2021/08/13 04:45:42;;;;;;;39.23;30.27;;;;;;;18.42;74.95;102031.81;4928154;29;20224;-77
2021/08/13 04:48:08;;;;;;;35.70;30.57;;;;;;;18.40;74.93;102028.50;4926621;29;20223;-77
2021/08/13 04:50:34;;;;;;;38.67;30.33;;;;;;;18.39;75.09;102029.59;4930181;29;20377;-76
2021/08/13 04:53:01;;;;;;;34.57;29.30;;;;;;;18.23;75.63;102027.69;4928699;28;20244;-76
2021/08/13 04:55:28;;;;;;;36.70;31.17;;;;;;;18.19;75.63;102032.78;4931326;29;20213;-77
2021/08/13 04:57:55;;;;;;;39.43;30.97;;;;;;;17.99;76.53;102040.53;4926620;29;20252;-77
2021/08/13 05:00:23;;;;;;;37.63;30.40;;;;;;;18.11;75.96;102052.13;4930181;29;20304;-77
2021/08/13 05:02:50;;;;;;;38.50;30.83;;;;;;;18.09;76.37;102046.13;4928347;29;20229;-77
2021/08/13 05:05:16;;;;;;;41.53;31.00;;;;;;;18.23;75.28;102046.63;4928949;29;20241;-77
2021/08/13 05:07:42;;;;;;;40.13;31.00;;;;;;;18.31;74.93;102048.94;4928229;29;20273;-77
2021/08/13 05:10:11;;;;;;;33.90;28.27;;;;;;;18.51;74.04;102046.56;4928707;28;20220;-77
2021/08/13 05:12:38;;;;;;;40.33;28.23;;;;;;;18.52;73.70;102050.09;4927036;29;20212;-77
2021/08/13 05:15:06;;;;;;;35.00;29.17;;;;;;;17.99;75.76;102048.66;4928501;29;20231;-77
2021/08/13 05:17:34;;;;;;;36.90;29.07;;;;;;;18.28;74.70;102052.13;4929129;29;20308;-77
2021/08/13 05:20:00;;;;;;;35.10;28.57;;;;;;;18.26;74.55;102048.03;4928157;29;20726;-77
2021/08/13 05:22:27;;;;;;;32.50;27.63;;;;;;;18.00;75.24;102060.28;4928866;29;20221;-77
2021/08/13 05:24:53;;;;;;;33.80;27.70;;;;;;;18.16;75.02;102054.06;4930529;29;20218;-77
2021/08/13 05:27:20;;;;;;;34.90;27.53;;;;;;;18.49;73.92;102047.88;4932012;29;20228;-77
2021/08/13 05:29:46;;;;;;;31.20;27.13;;;;;;;18.54;72.73;102047.94;4928511;29;20266;-77
2021/08/13 05:32:12;;;;;;;29.07;24.43;;;;;;;18.54;72.95;102050.66;4929643;29;20213;-77
2021/08/13 05:34:40;;;;;;;32.23;25.10;;;;;;;18.69;72.46;102042.00;4929002;29;20287;-77
2021/08/13 05:37:07;;;;;;;29.10;24.07;;;;;;;18.72;72.17;102052.34;4929583;28;20241;-77
2021/08/13 05:39:33;;;;;;;26.53;22.60;;;;;;;18.87;71.71;102055.28;4929087;28;20244;-77
2021/08/13 05:41:59;;;;;;;25.57;21.90;;;;;;;18.63;72.47;102051.91;4929567;29;20219;-78
2021/08/13 05:44:26;;;;;;;25.33;22.60;;;;;;;18.58;73.52;102056.41;4931342;29;20273;-77
2021/08/13 05:46:52;;;;;;;25.23;21.00;;;;;;;19.03;71.54;102065.25;4929106;29;20729;-78
2021/08/13 05:49:18;;;;;;;24.63;21.23;;;;;;;19.02;71.84;102060.06;4929727;29;20737;-78
2021/08/13 05:51:46;;;;;;;22.33;19.93;;;;;;;18.97;71.29;102052.72;4928329;29;20638;-78
2021/08/13 05:54:12;;;;;;;23.67;20.03;;;;;;;18.80;72.38;102049.19;4929078;29;20225;-78
2021/08/13 05:56:39;;;;;;;22.67;20.20;;;;;;;19.08;71.22;102054.50;4927033;29;20645;-78
2021/08/13 05:59:05;;;;;;;26.60;21.43;;;;;;;19.17;71.20;102046.75;4930737;29;20241;-78
2021/08/13 06:01:31;;;;;;;23.97;20.97;;;;;;;18.91;72.60;102050.97;4931413;29;20645;-78
2021/08/13 06:03:58;;;;;;;23.70;21.20;;;;;;;19.21;71.52;102045.19;4926698;28;20333;-77
2021/08/13 06:06:26;;;;;;;26.03;20.60;;;;;;;18.98;72.16;102050.81;4930509;29;20272;-77
2021/08/13 06:08:54;;;;;;;23.70;20.17;;;;;;;18.86;72.68;102050.91;4929120;29;20338;-77
2021/08/13 06:11:20;;;;;;;23.07;19.63;;;;;;;18.86;72.85;102053.63;4929615;29;20228;-77
2021/08/13 06:13:47;;;;;;;22.17;19.50;;;;;;;19.01;72.34;102050.31;4928031;29;20221;-77
2021/08/13 06:16:17;;;;;;;24.57;19.67;;;;;;;19.36;71.34;102047.25;4926254;29;20218;-78
2021/08/13 06:18:44;;;;;;;23.67;20.20;;;;;;;19.61;70.64;102039.47;4926799;29;20253;-77
2021/08/13 06:21:10;;;;;;;21.53;18.33;;;;;;;18.99;72.99;102050.56;4928057;28;20234;-78
2021/08/13 06:23:36;;;;;;;21.37;18.57;;;;;;;19.22;71.82;102059.56;4927635;29;20205;-77
2021/08/13 06:26:04;;;;;;;23.07;18.13;;;;;;;19.36;71.95;102053.50;4927380;29;20207;-77
2021/08/13 06:28:30;;;;;;;20.83;18.13;;;;;;;19.68;70.43;102045.50;4930510;28;20213;-78
2021/08/13 06:30:57;;;;;;;21.80;18.90;;;;;;;19.45;71.40;102043.06;4933846;29;20245;-78
2021/08/13 06:33:23;;;;;;;21.50;18.23;;;;;;;19.56;71.28;102044.81;4934793;29;20639;-77
2021/08/13 06:35:50;;;;;;;19.57;16.60;;;;;;;19.01;73.17;102045.72;4931049;29;20728;-78
2021/08/13 06:38:16;;;;;;;19.57;16.17;;;;;;;19.23;72.26;102048.47;4930816;29;21001;-78
2021/08/13 06:40:42;;;;;;;21.63;16.57;;;;;;;19.30;72.58;102045.53;4935673;29;20548;-78
2021/08/13 06:43:10;;;;;;;19.50;17.50;;;;;;;19.33;72.28;102040.47;4931574;29;20652;-78
2021/08/13 06:45:36;;;;;;;22.17;16.00;;;;;;;19.55;71.85;102043.19;4933293;29;20245;-78
2021/08/13 06:48:03;;;;;;;17.77;14.97;;;;;;;19.45;71.17;102050.38;4932756;29;20277;-78
2021/08/13 06:50:29;;;;;;;20.07;15.67;;;;;;;19.44;71.39;102057.69;4934790;29;20229;-79
2021/08/13 06:52:56;;;;;;;19.20;15.77;;;;;;;19.67;71.13;102053.88;4932736;29;20312;-79
2021/08/13 06:55:22;;;;;;;17.93;15.57;;;;;;;19.80;70.96;102045.34;4930628;29;20225;-78
2021/08/13 06:57:49;;;;;;;19.03;16.20;;;;;;;19.80;71.27;102041.81;4932951;29;20312;-79
2021/08/13 07:00:17;;;;;;;17.93;15.87;;;;;;;19.76;71.43;102046.13;4931823;29;20270;-78
2021/08/13 07:02:46;;;;;;;18.20;15.53;;;;;;;19.72;71.60;102064.81;4932639;29;20290;-78
2021/08/13 07:05:13;;;;;;;19.57;15.63;;;;;;;19.37;73.66;102065.97;4931189;29;20277;-78
2021/08/13 07:07:40;;;;;;;18.70;14.83;;;;;;;19.33;73.69;102069.47;4931532;29;20237;-78
2021/08/13 07:10:07;;;;;;;17.30;15.33;;;;;;;19.14;74.79;102068.09;4931899;29;20218;-79
2021/08/13 07:12:34;;;;;;;16.30;14.60;;;;;;;19.26;74.60;102091.31;4932822;29;20219;-79
2021/08/13 07:15:00;;;;;;;19.83;15.20;;;;;;;19.08;75.45;102078.88;4931097;28;20240;-77
2021/08/13 07:17:28;;;;;;;18.20;14.87;;;;;;;19.03;75.13;102084.22;4932956;29;20250;-77
2021/08/13 07:19:55;;;;;;;20.83;15.87;;;;;;;19.19;75.17;102087.16;4931427;29;20239;-78
2021/08/13 07:22:21;;;;;;;18.37;15.43;;;;;;;19.34;74.52;102093.59;4929974;29;20225;-77
2021/08/13 07:24:48;;;;;;;19.57;15.53;;;;;;;19.09;75.09;102101.38;4928872;29;20210;-79
2021/08/13 07:27:14;;;;;;;21.60;15.00;;;;;;;19.13;75.81;102104.38;4932750;29;20371;-78
2021/08/13 07:29:41;;;;;;;17.87;15.20;;;;;;;19.20;75.52;102107.75;4932406;29;20305;-78
2021/08/13 07:32:07;;;;;;;18.37;14.80;;;;;;;19.40;75.25;102100.72;4929814;29;20223;-77
2021/08/13 07:34:35;;;;;;;16.10;14.33;;;;;;;19.62;74.46;102095.31;4929939;29;20312;-78
2021/08/13 07:37:02;;;;;;;17.93;15.03;;;;;;;19.63;73.97;102094.25;4931389;29;20242;-77
2021/08/13 07:39:28;;;;;;;18.33;15.47;;;;;;;19.57;74.81;102081.72;4931737;29;20226;-77
2021/08/13 07:41:54;;;;;;;19.07;14.43;;;;;;;19.58;74.52;102087.97;4929365;29;20307;-78
2021/08/13 07:44:21;;;;;;;15.80;14.13;;;;;;;19.65;74.79;102092.09;4931669;28;20293;-77
2021/08/13 07:46:47;;;;;;;15.20;13.23;;;;;;;19.93;74.31;102095.66;4932204;29;20704;-78
2021/08/13 07:49:14;;;;;;;16.60;12.50;;;;;;;19.59;74.62;102097.72;4935241;28;20238;-79
2021/08/13 07:51:41;;;;;;;17.10;13.30;;;;;;;19.52;75.17;102086.22;4934148;28;20252;-79
2021/08/13 07:54:08;;;;;;;16.27;11.37;;;;;;;19.19;75.35;102103.41;4935335;29;20226;-78
2021/08/13 07:56:34;;;;;;;13.90;11.00;;;;;;;19.16;75.69;102112.00;4936510;29;20263;-79
2021/08/13 07:59:01;;;;;;;11.93;10.13;;;;;;;19.32;75.94;102138.28;4939370;29;20319;-80
2021/08/13 08:01:28;;;;;;;10.67;9.20;;;;;;;19.00;75.19;102159.72;4938400;29;20218;-80
2021/08/13 08:03:55;;;;;;;13.83;9.80;;;;;;;19.00;76.06;102138.88;4939222;29;20235;-79
2021/08/13 08:06:21;;;;;;;13.47;9.87;;;;;;;19.33;75.49;102123.66;4936229;29;20333;-81
2021/08/13 08:08:49;;;;;;;12.20;9.83;;;;;;;19.65;72.81;102121.94;4934276;29;20225;-80
2021/08/13 08:11:16;;;;;;;11.77;9.20;;;;;;;19.80;72.39;102120.47;4934559;28;20881;-79
2021/08/13 08:13:42;;;;;;;12.83;9.27;;;;;;;20.02;71.46;102131.31;4936454;29;20521;-81
2021/08/13 08:16:08;;;;;;;11.17;8.87;;;;;;;19.93;70.78;102136.34;4938668;28;20858;-81
2021/08/13 08:18:35;;;;;;;11.83;9.80;;;;;;;19.95;71.76;102135.06;4935993;29;20242;-78
2021/08/13 08:21:01;;;;;;;11.33;9.87;;;;;;;19.86;70.93;102133.84;4933270;29;20255;-80
2021/08/13 08:23:28;;;;;;;10.73;9.63;;;;;;;19.83;71.67;102130.84;4935686;29;20213;-80
2021/08/13 08:25:55;;;;;;;13.03;9.57;;;;;;;20.25;71.37;102137.28;4936158;29;20228;-81
2021/08/13 08:28:22;;;;;;;10.57;8.60;;;;;;;20.39;69.32;102140.38;4933730;29;20218;-81
2021/08/13 08:30:48;;;;;;;13.43;8.57;;;;;;;20.51;68.37;102143.78;4932834;29;20225;-79
2021/08/13 08:33:15;;;;;;;10.73;8.60;;;;;;;20.97;67.65;102136.03;4936653;28;20864;-81
2021/08/13 08:35:41;;;;;;;13.90;7.80;;;;;;;21.31;65.97;102133.81;4933652;29;20222;-82
2021/08/13 08:38:08;;;;;;;8.47;7.20;;;;;;;20.71;68.07;102140.44;4939981;29;20737;-81
2021/08/13 08:40:36;;;;;;;8.37;7.60;;;;;;;20.31;68.20;102146.28;4936784;29;20214;-81
2021/08/13 08:43:06;;;;;;;10.30;8.13;;;;;;;20.32;67.53;102158.75;4937431;29;20214;-79
2021/08/13 08:45:35;;;;;;;9.17;8.10;;;;;;;20.61;67.41;102155.84;4935160;29;20680;-80
2021/08/13 08:48:04;;;;;;;9.47;7.73;;;;;;;20.88;67.24;102155.78;4934322;29;20217;-80
2021/08/13 08:50:32;;;;;;;9.63;7.07;;;;;;;20.69;66.27;102145.28;4934909;29;20329;-79
2021/08/13 08:53:01;;;;;;;9.47;7.17;;;;;;;20.86;67.06;102165.03;4932690;28;20786;-81
2021/08/13 08:55:29;;;;;;;7.30;6.23;;;;;;;21.01;64.75;102177.06;4936156;29;20214;-80
2021/08/13 08:57:56;;;;;;;8.97;6.27;;;;;;;20.79;64.85;102163.59;4931717;29;20332;-81
2021/08/13 09:00:24;;;;;;;8.53;6.60;;;;;;;20.59;65.29;102168.84;4934098;29;20210;-80
2021/08/13 09:02:51;;;;;;;8.33;5.83;;;;;;;20.80;65.32;102157.06;4936578;29;20882;-80
2021/08/13 09:05:17;;;;;;;7.23;5.63;;;;;;;21.41;63.27;102162.97;4934687;29;20278;-81
2021/08/13 09:07:43;;;;;;;9.40;5.00;;;;;;;21.35;61.38;102162.13;4936397;29;20277;-80
2021/08/13 09:10:12;;;;;;;9.10;4.70;;;;;;;20.97;61.45;102165.09;4936316;29;20669;-80
2021/08/13 09:12:39;;;;;;;5.23;3.90;;;;;;;20.83;62.25;102173.69;4933517;29;20315;-78
2021/08/13 09:15:07;;;;;;;9.53;4.57;;;;;;;20.77;61.04;102182.03;4935981;29;20225;-79
2021/08/13 09:17:35;;;;;;;7.43;5.20;;;;;;;20.54;62.07;102175.03;4936039;29;20234;-79
2021/08/13 09:20:01;;;;;;;6.57;4.67;;;;;;;20.69;62.40;102169.75;4934368;29;20621;-80
2021/08/13 09:22:28;;;;;;;8.07;4.80;;;;;;;20.60;60.73;102175.91;4936264;29;20232;-80
2021/08/13 09:24:56;;;;;;;6.30;3.87;;;;;;;20.82;59.79;102182.06;4934773;29;20730;-79
2021/08/13 09:27:26;;;;;;;9.70;4.53;;;;;;;21.00;59.04;102184.41;4936551;28;20213;-79
2021/08/13 09:30:12;;;;;;;7.07;4.60;;;;;;;20.99;58.88;102190.94;4934779;29;20211;-79
2021/08/13 09:32:41;;;;;;;7.43;4.83;;;;;;;21.04;59.20;102187.44;4936361;29;20214;-80
2021/08/13 09:35:09;;;;;;;9.43;5.07;;;;;;;21.13;60.81;102191.31;4936933;29;20239;-80
2021/08/13 09:37:37;;;;;;;6.90;5.10;;;;;;;20.92;61.15;102198.47;4934089;29;20238;-80
2021/08/13 09:40:04;;;;;;;6.87;4.80;;;;;;;21.45;58.91;102193.97;4938877;29;20215;-80
2021/08/13 09:42:35;;;;;;;6.30;5.03;;;;;;;21.22;59.41;102203.34;4936374;29;20222;-81
2021/08/13 09:45:04;;;;;;;6.90;4.87;;;;;;;20.86;60.14;102221.25;4933129;29;20213;-79
2021/08/13 09:47:43;;;;;;;8.50;4.97;;;;;;;20.91;60.67;102204.97;4935276;29;20224;-80
2021/08/13 09:50:10;;;;;;;5.20;4.70;;;;;;;21.28;58.75;102217.81;4937186;29;20248;-80
2021/08/13 09:52:37;;;;;;;5.70;4.90;;;;;;;21.27;58.89;102205.28;4933190;28;20246;-78
2021/08/13 09:55:09;;;;;;;9.77;5.53;;;;;;;20.94;59.48;102211.78;4938998;29;20567;-79
2021/08/13 09:57:40;;;;;;;7.10;5.60;;;;;;;20.95;59.54;102210.72;4932102;29;20253;-79
2021/08/13 10:00:09;;;;;;;8.87;5.50;;;;;;;21.49;58.32;102205.19;4932326;29;20218;-79
2021/08/13 10:02:38;;;;;;;7.40;5.67;;;;;;;21.63;58.13;102212.59;4932908;29;20297;-80
2021/08/13 10:05:17;;;;;;;7.67;5.23;;;;;;;21.98;55.90;102220.13;4938373;29;20672;-80
2021/08/13 10:07:47;;;;;;;8.57;4.67;;;;;;;21.72;57.45;102215.63;4938974;29;20309;-79
2021/08/13 10:10:14;;;;;;;7.20;5.10;;;;;;;21.89;56.49;102221.72;4937600;29;20225;-79
2021/08/13 10:12:43;;;;;;;9.10;5.57;;;;;;;21.65;57.51;102221.31;4941210;29;20314;-79
2021/08/13 10:15:10;;;;;;;11.63;5.37;;;;;;;21.97;56.53;102221.19;4938051;29;20330;-79
2021/08/13 10:17:36;;;;;;;8.13;4.90;;;;;;;22.07;56.28;102217.72;4937042;29;20222;-79
2021/08/13 10:20:03;;;;;;;8.83;4.70;;;;;;;21.74;56.47;102227.09;4938165;29;20241;-79
2021/08/13 10:22:31;;;;;;;6.93;5.20;;;;;;;21.95;56.92;102226.06;4937631;29;20805;-79
2021/08/13 10:24:58;;;;;;;5.97;5.00;;;;;;;21.40;58.92;102237.47;4937274;29;20220;-79
2021/08/13 10:27:25;;;;;;;5.90;4.50;;;;;;;21.38;59.06;102228.75;4936895;29;20234;-79
2021/08/13 10:29:51;;;;;;;9.27;4.63;;;;;;;21.61;57.12;102220.22;4937629;29;20763;-79
2021/08/13 10:32:19;;;;;;;6.17;4.50;;;;;;;21.89;57.79;102235.31;4937662;29;20245;-79
2021/08/13 10:34:46;;;;;;;6.77;4.00;;;;;;;22.42;56.73;102230.63;4939413;29;20606;-79
2021/08/13 10:37:14;;;;;;;7.13;4.60;;;;;;;21.69;57.79;102237.91;4937413;29;20693;-80
2021/08/13 10:39:43;;;;;;;8.37;4.40;;;;;;;21.82;57.13;102240.16;4940184;29;20666;-79
2021/08/13 10:42:15;;;;;;;7.37;4.47;;;;;;;22.24;57.21;102240.13;4935681;29;20219;-80
2021/08/13 10:44:46;;;;;;;5.50;4.03;;;;;;;21.73;58.08;102236.34;4936882;29;20223;-80
2021/08/13 10:47:15;;;;;;;7.67;4.63;;;;;;;21.38;59.02;102247.78;4937896;29;20225;-79
2021/08/13 10:49:45;;;;;;;9.83;3.80;;;;;;;21.09;59.93;102236.41;4937754;29;20288;-80
2021/08/13 10:52:11;;;;;;;7.80;3.87;;;;;;;21.29;57.73;102236.56;4937136;29;20234;-79
2021/08/13 10:54:41;;;;;;;9.47;3.80;;;;;;;21.69;57.69;102227.84;4938680;29;20234;-79
2021/08/13 10:57:10;;;;;;;8.40;3.33;;;;;;;21.86;54.99;102229.59;4936560;29;20273;-80
2021/08/13 10:59:56;;;;;;;5.40;3.93;;;;;;;21.34;56.54;102219.47;4935682;29;20373;-79
2021/08/13 11:02:22;;;;;;;9.37;4.67;;;;;;;21.39;57.35;102233.94;4935001;29;20210;-79
2021/08/13 11:04:50;;;;;;;10.30;3.70;;;;;;;21.41;56.02;102230.94;4933343;29;20269;-79
2021/08/13 11:07:57;;;;;;;6.87;3.50;;;;;;;21.59;55.06;102235.94;4935685;29;20592;-79
2021/08/13 11:10:57;;;;;;;6.50;3.50;;;;;;;21.53;56.08;102249.78;4936370;29;20304;-80
2021/08/13 11:13:25;;;;;;;5.53;2.97;;;;;;;21.62;55.65;102234.63;4937682;29;20242;-79
2021/08/13 11:15:52;;;;;;;6.90;3.30;;;;;;;21.43;55.66;102243.19;4936426;28;20214;-80